createdAt,value
2018-08-03T00:00:55.193Z,23.40
2018-08-03T00:03:23.604Z,23.40
2018-08-03T00:05:52.018Z,23.40
2018-08-03T00:08:20.533Z,23.40
2018-08-03T00:10:48.924Z,23.40
2018-08-03T00:13:17.287Z,23.30
2018-08-03T00:15:45.705Z,23.20
2018-08-03T00:18:14.252Z,23.20
2018-08-03T00:20:42.884Z,23.20
2018-08-03T00:23:11.315Z,23.30
2018-08-03T00:25:39.737Z,23.30
2018-08-03T00:28:08.143Z,23.20
2018-08-03T00:30:36.548Z,23.20
2018-08-03T00:33:04.932Z,23.20
2018-08-03T00:35:33.370Z,23.20
2018-08-03T00:38:01.818Z,23.30
2018-08-03T00:40:30.160Z,23.30
2018-08-03T00:42:58.607Z,23.20
2018-08-03T00:45:27.134Z,23.20
2018-08-03T00:47:55.589Z,23.20
2018-08-03T00:50:24.050Z,23.20
2018-08-03T00:52:52.467Z,23.20
2018-08-03T00:55:20.912Z,23.10
2018-08-03T00:57:49.528Z,23.10
2018-08-03T01:00:18.023Z,22.90
2018-08-03T01:02:46.396Z,22.90
2018-08-03T01:05:14.772Z,22.80
2018-08-03T01:07:43.140Z,22.80
2018-08-03T01:10:11.563Z,22.80
2018-08-03T01:12:39.910Z,22.70
2018-08-03T01:15:08.343Z,22.70
2018-08-03T01:17:36.775Z,22.80
2018-08-03T01:20:05.874Z,22.70
2018-08-03T01:22:34.252Z,22.70
2018-08-03T01:25:02.732Z,22.70
2018-08-03T01:27:31.113Z,22.60
2018-08-03T01:29:59.519Z,22.70
2018-08-03T01:32:27.913Z,22.60
2018-08-03T01:34:56.280Z,22.60
2018-08-03T01:37:24.709Z,22.50
2018-08-03T01:39:53.078Z,22.50
2018-08-03T01:42:21.480Z,22.50
2018-08-03T01:44:49.889Z,22.40
2018-08-03T01:47:18.337Z,22.40
2018-08-03T01:49:46.680Z,22.50
2018-08-03T01:52:15.044Z,22.50
2018-08-03T01:54:43.442Z,22.50
2018-08-03T01:57:11.833Z,22.50
2018-08-03T01:59:40.225Z,22.40
2018-08-03T02:02:08.657Z,22.40
2018-08-03T02:04:37.022Z,22.40
2018-08-03T02:07:05.431Z,22.40
2018-08-03T02:09:33.865Z,22.50
2018-08-03T02:12:02.253Z,22.40
2018-08-03T02:14:30.725Z,22.40
2018-08-03T02:16:59.185Z,22.40
2018-08-03T02:19:27.676Z,22.40
2018-08-03T02:21:56.101Z,22.40
2018-08-03T02:24:24.571Z,22.40
2018-08-03T02:26:53.023Z,22.40
2018-08-03T02:29:21.422Z,22.40
2018-08-03T02:31:49.801Z,22.30
2018-08-03T02:34:18.174Z,22.30
2018-08-03T02:36:46.560Z,22.30
2018-08-03T02:39:14.924Z,22.30
2018-08-03T02:41:43.336Z,22.30
2018-08-03T02:44:11.797Z,22.30
2018-08-03T02:46:40.128Z,22.20
2018-08-03T02:49:08.485Z,22.20
2018-08-03T02:51:36.924Z,22.20
2018-08-03T02:54:05.331Z,22.20
2018-08-03T02:56:33.692Z,22.20
2018-08-03T02:59:02.150Z,22.20
2018-08-03T03:01:30.580Z,22.20
2018-08-03T03:03:58.949Z,22.20
2018-08-03T03:06:27.377Z,22.20
2018-08-03T03:08:55.926Z,22.20
2018-08-03T03:11:24.288Z,22.20
2018-08-03T03:13:52.684Z,22.20
2018-08-03T03:16:21.086Z,22.20
2018-08-03T03:18:49.458Z,22.20
2018-08-03T03:21:17.865Z,22.10
2018-08-03T03:23:46.264Z,22.00
2018-08-03T03:26:14.639Z,21.90
2018-08-03T03:28:43.037Z,21.90
2018-08-03T03:31:11.440Z,21.90
2018-08-03T03:33:39.828Z,21.90
2018-08-03T03:36:08.236Z,21.90
2018-08-03T03:38:36.606Z,21.80
2018-08-03T03:41:04.978Z,21.80
2018-08-03T03:43:33.350Z,21.80
2018-08-03T03:46:01.739Z,21.90
2018-08-03T03:48:30.102Z,21.80
2018-08-03T03:50:58.573Z,21.80
2018-08-03T03:55:55.045Z,21.90
2018-08-03T03:58:23.441Z,21.90
2018-08-03T04:00:51.860Z,21.80
2018-08-03T04:03:20.275Z,21.80
2018-08-03T04:05:48.664Z,21.80
2018-08-03T04:08:17.047Z,21.70
2018-08-03T04:10:45.486Z,21.80
2018-08-03T04:20:41.051Z,21.80
2018-08-03T04:23:09.492Z,21.80
2018-08-03T04:25:37.954Z,21.80
2018-08-03T04:28:06.275Z,21.90
2018-08-03T04:30:34.675Z,21.90
2018-08-03T04:33:03.068Z,21.90
2018-08-03T04:35:31.452Z,21.90
2018-08-03T04:37:59.842Z,21.90
2018-08-03T04:40:28.225Z,21.90
2018-08-03T04:42:56.594Z,22.00
2018-08-03T04:45:24.967Z,22.00
2018-08-03T04:47:53.416Z,21.90
2018-08-03T04:50:21.806Z,21.90
2018-08-03T04:52:50.256Z,22.00
2018-08-03T04:55:18.680Z,22.00
2018-08-03T04:57:47.206Z,22.00
2018-08-03T05:00:15.619Z,22.00
2018-08-03T05:02:43.997Z,22.10
2018-08-03T05:05:12.359Z,22.10
2018-08-03T05:07:40.850Z,22.10
2018-08-03T05:10:09.182Z,22.20
2018-08-03T05:12:37.672Z,22.30
2018-08-03T05:15:06.869Z,22.30
2018-08-03T05:17:35.293Z,22.30
2018-08-03T05:20:03.841Z,22.30
2018-08-03T05:22:32.237Z,22.30
2018-08-03T05:25:00.765Z,22.30
2018-08-03T05:27:29.116Z,22.30
2018-08-03T05:29:57.507Z,22.40
2018-08-03T05:32:25.925Z,22.40
2018-08-03T05:34:54.336Z,22.40
2018-08-03T05:37:22.759Z,22.40
2018-08-03T05:39:51.166Z,22.60
2018-08-03T05:42:19.649Z,22.70
2018-08-03T05:44:48.110Z,22.70
2018-08-03T05:47:16.466Z,22.60
2018-08-03T05:49:44.876Z,22.80
2018-08-03T05:52:13.288Z,22.80
2018-08-03T05:54:41.714Z,22.80
2018-08-03T05:57:10.102Z,22.80
2018-08-03T05:59:38.553Z,22.80
2018-08-03T06:02:06.970Z,22.90
2018-08-03T06:04:35.371Z,23.00
2018-08-03T06:07:03.822Z,23.10
2018-08-03T06:09:32.251Z,23.10
2018-08-03T06:12:00.615Z,23.10
2018-08-03T06:14:29.016Z,23.20
2018-08-03T06:16:57.448Z,23.20
2018-08-03T06:19:25.881Z,23.30
2018-08-03T06:21:54.349Z,23.30
2018-08-03T06:24:22.782Z,23.50
2018-08-03T06:26:51.176Z,23.60
2018-08-03T06:29:19.568Z,23.70
2018-08-03T06:31:48.012Z,23.80
2018-08-03T06:34:16.384Z,23.90
2018-08-03T06:36:44.800Z,24.00
2018-08-03T06:39:13.242Z,24.10
2018-08-03T06:41:42.448Z,24.10
2018-08-03T06:44:10.918Z,24.10
2018-08-03T06:46:39.409Z,24.20
2018-08-03T06:49:07.838Z,24.30
2018-08-03T06:51:36.264Z,24.40
2018-08-03T06:54:04.724Z,24.40
2018-08-03T06:56:33.212Z,24.40
2018-08-03T06:59:01.664Z,24.60
2018-08-03T07:01:30.079Z,24.60
2018-08-03T07:03:58.494Z,24.70
2018-08-03T07:06:26.922Z,24.70
2018-08-03T07:08:55.358Z,24.70
2018-08-03T07:11:23.817Z,24.80
2018-08-03T07:13:52.215Z,24.90
2018-08-03T07:16:20.642Z,24.90
2018-08-03T07:18:49.057Z,25.00
2018-08-03T07:21:24.267Z,25.20
2018-08-03T07:23:52.735Z,25.20
2018-08-03T07:26:21.182Z,25.40
2018-08-03T07:28:50.209Z,25.60
2018-08-03T07:31:18.802Z,25.70
2018-08-03T07:33:47.771Z,25.80
2018-08-03T07:36:16.480Z,26.00
2018-08-03T07:38:45.215Z,26.20
2018-08-03T07:41:13.626Z,26.20
2018-08-03T07:43:42.061Z,26.30
2018-08-03T07:46:10.636Z,26.50
2018-08-03T07:48:39.084Z,26.50
2018-08-03T07:51:07.669Z,26.60
2018-08-03T07:53:36.127Z,26.80
2018-08-03T07:56:04.546Z,26.80
2018-08-03T07:58:32.987Z,27.00
2018-08-03T08:01:01.578Z,27.10
2018-08-03T08:03:30.258Z,27.00
2018-08-03T08:05:58.669Z,27.00
2018-08-03T08:08:27.094Z,27.00
2018-08-03T08:10:55.582Z,27.10
2018-08-03T08:13:24.024Z,27.30
2018-08-03T08:18:20.605Z,27.70
2018-08-03T08:20:49.053Z,27.60
2018-08-03T08:23:17.536Z,27.90
2018-08-03T08:25:45.932Z,27.70
2018-08-03T08:28:14.346Z,27.90
2018-08-03T08:30:42.841Z,27.70
2018-08-03T08:33:11.235Z,27.80
2018-08-03T08:35:39.608Z,27.90
2018-08-03T08:38:08.149Z,28.10
2018-08-03T08:40:36.560Z,28.30
2018-08-03T08:43:05.081Z,28.50
2018-08-03T08:45:33.620Z,28.70
2018-08-03T08:48:02.039Z,28.80
2018-08-03T08:50:30.504Z,28.90
2018-08-03T08:52:59.137Z,29.00
2018-08-03T08:55:27.476Z,29.00
2018-08-03T08:57:55.917Z,28.90
2018-08-03T09:00:24.442Z,28.80
2018-08-03T09:02:52.903Z,28.80
2018-08-03T09:05:21.456Z,28.70
2018-08-03T09:07:49.978Z,28.80
2018-08-03T09:10:18.394Z,28.80
2018-08-03T09:12:47.015Z,28.80
2018-08-03T09:15:15.457Z,29.00
2018-08-03T09:17:43.864Z,29.00
2018-08-03T09:20:12.313Z,29.10
2018-08-03T09:22:40.809Z,29.30
2018-08-03T09:25:09.385Z,29.20
2018-08-03T09:27:37.907Z,29.20
2018-08-03T09:30:08.540Z,29.10
2018-08-03T09:32:36.914Z,29.20
2018-08-03T09:35:05.873Z,29.30
2018-08-03T09:37:34.385Z,29.30
2018-08-03T09:40:02.899Z,29.40
2018-08-03T09:42:31.503Z,29.60
2018-08-03T09:44:59.904Z,29.70
2018-08-03T09:47:28.468Z,29.70
2018-08-03T09:49:56.891Z,29.90
2018-08-03T09:52:25.391Z,30.10
2018-08-03T09:54:56.647Z,30.30
2018-08-03T09:58:07.104Z,30.40
2018-08-03T10:00:41.069Z,30.20
2018-08-03T10:03:09.644Z,30.40
2018-08-03T10:05:38.055Z,30.60
2018-08-03T10:08:06.508Z,30.80
2018-08-03T10:10:34.887Z,30.90
2018-08-03T10:13:03.340Z,31.10
2018-08-03T10:15:31.792Z,31.20
2018-08-03T10:18:00.241Z,31.30
2018-08-03T10:20:28.831Z,31.40
2018-08-03T10:22:57.286Z,31.60
2018-08-03T10:25:25.772Z,31.70
2018-08-03T10:27:54.361Z,31.90
2018-08-03T10:30:22.804Z,32.20
2018-08-03T10:32:51.213Z,32.20
2018-08-03T10:37:48.140Z,32.80
2018-08-03T10:40:16.558Z,33.40
2018-08-03T17:34:59.958Z,40.70
2018-08-03T17:37:28.341Z,36.90
2018-08-03T17:39:56.789Z,36.30
2018-08-03T17:42:25.352Z,36.00
2018-08-03T17:44:53.751Z,36.20
2018-08-03T17:47:22.153Z,36.00
2018-08-03T17:49:50.649Z,36.20
2018-08-03T17:52:19.083Z,36.10
2018-08-03T17:54:47.577Z,36.20
2018-08-03T17:57:15.905Z,36.30
2018-08-03T17:59:44.695Z,36.20
2018-08-03T18:02:13.127Z,36.20
2018-08-03T18:04:41.623Z,36.20
2018-08-03T18:07:10.111Z,36.20
2018-08-03T18:09:38.622Z,36.00
2018-08-03T18:12:07.094Z,35.90
2018-08-03T18:14:35.597Z,35.80
2018-08-03T18:17:03.982Z,35.80
2018-08-03T18:19:32.395Z,35.70
2018-08-03T18:22:00.903Z,35.60
2018-08-03T18:24:29.383Z,35.50
2018-08-03T18:26:57.789Z,35.50
2018-08-03T18:29:26.285Z,35.30
2018-08-03T18:31:54.657Z,35.10
2018-08-03T18:34:23.980Z,34.90
2018-08-03T18:36:53.138Z,34.70
2018-08-03T18:39:21.850Z,34.50
2018-08-03T18:41:50.585Z,34.40
2018-08-03T18:44:19.175Z,34.30
2018-08-03T18:46:47.790Z,34.10
2018-08-03T18:49:16.429Z,33.90
2018-08-03T18:51:45.448Z,33.70
2018-08-03T18:54:14.369Z,33.50
2018-08-03T18:56:43.247Z,33.30
2018-08-03T18:59:12.385Z,33.10
2018-08-03T19:01:40.999Z,32.90
2018-08-03T19:04:09.488Z,32.80
2018-08-03T19:06:38.136Z,32.60
2018-08-03T19:09:07.774Z,32.40
2018-08-03T19:11:36.849Z,32.30
2018-08-03T19:14:05.785Z,32.10
2018-08-03T19:16:34.229Z,32.00
2018-08-03T19:19:02.663Z,31.90
2018-08-03T19:21:31.180Z,31.70
2018-08-03T19:23:59.649Z,31.60
2018-08-03T19:26:28.227Z,31.40
2018-08-03T19:28:56.637Z,31.30
2018-08-03T19:31:25.117Z,31.10
2018-08-03T19:33:53.937Z,31.00
2018-08-03T19:36:22.373Z,30.90
2018-08-03T19:38:50.792Z,30.70
2018-08-03T19:41:19.213Z,30.50
2018-08-03T19:43:47.703Z,30.40
2018-08-03T19:46:16.186Z,30.30
2018-08-03T19:48:44.718Z,30.20
2018-08-03T19:51:13.165Z,30.10
2018-08-03T19:53:41.628Z,30.00
2018-08-03T19:56:10.063Z,29.90
2018-08-03T19:58:38.593Z,29.80
2018-08-03T20:01:06.930Z,29.70
2018-08-03T20:03:35.368Z,29.60
2018-08-03T20:06:03.995Z,29.50
2018-08-03T20:08:32.418Z,29.50
2018-08-03T20:11:00.890Z,29.40
2018-08-03T20:13:29.401Z,29.20
